createdAt,value
2018-08-08T00:04:09.849Z,8.20
2018-08-08T00:09:12.046Z,8.03
2018-08-08T00:14:14.235Z,8.30
2018-08-08T00:19:23.206Z,8.30
2018-08-08T00:24:25.413Z,8.10
2018-08-08T00:29:27.682Z,7.37
2018-08-08T00:34:29.846Z,6.40
2018-08-08T00:39:32.004Z,6.07
2018-08-08T00:44:34.189Z,6.20
2018-08-08T00:49:36.345Z,5.90
2018-08-08T00:54:38.523Z,6.23
2018-08-08T00:59:40.727Z,5.80
2018-08-08T01:04:42.913Z,5.90
2018-08-08T01:09:45.078Z,6.57
2018-08-08T01:14:47.233Z,5.77
2018-08-08T01:19:49.377Z,6.20
2018-08-08T01:24:51.825Z,5.83
2018-08-08T01:29:53.970Z,6.30
2018-08-08T01:34:56.132Z,7.03
2018-08-08T01:39:58.300Z,6.87
2018-08-08T01:45:00.433Z,6.23
2018-08-08T01:50:02.666Z,6.90
2018-08-08T01:55:05.345Z,7.20
2018-08-08T02:00:11.249Z,6.97
2018-08-08T02:05:13.453Z,7.60
2018-08-08T02:10:17.529Z,7.93
2018-08-08T02:15:19.700Z,7.70
2018-08-08T02:20:21.878Z,8.33
2018-08-08T02:25:24.021Z,7.00
2018-08-08T02:30:26.178Z,7.17
2018-08-08T02:35:28.329Z,7.17
2018-08-08T02:40:30.493Z,7.70
2018-08-08T02:45:32.646Z,7.90
2018-08-08T02:50:34.829Z,8.10
2018-08-08T02:55:36.993Z,8.67
2018-08-08T03:00:39.165Z,8.20
2018-08-08T03:05:41.321Z,8.50
2018-08-08T03:10:43.481Z,8.13
2018-08-08T03:15:45.658Z,8.80
2018-08-08T03:20:47.853Z,8.47
2018-08-08T03:25:50.017Z,8.77
2018-08-08T03:30:52.185Z,11.83
2018-08-08T03:35:54.389Z,9.50
2018-08-08T03:40:56.610Z,9.00
2018-08-08T03:45:58.772Z,8.73
2018-08-08T03:51:00.948Z,8.33
2018-08-08T03:56:03.137Z,8.00
2018-08-08T04:01:05.337Z,8.57
2018-08-08T04:06:07.577Z,8.30
2018-08-08T04:11:09.793Z,8.70
2018-08-08T04:16:11.977Z,9.20
2018-08-08T04:21:14.190Z,9.33
2018-08-08T04:26:16.353Z,9.33
2018-08-08T04:31:18.505Z,8.83
2018-08-08T04:36:20.676Z,9.50
2018-08-08T04:41:22.881Z,9.77
2018-08-08T04:46:25.049Z,9.47
2018-08-08T04:51:27.231Z,9.93
2018-08-08T04:56:29.595Z,10.17
2018-08-08T05:01:31.754Z,8.90
2018-08-08T05:06:33.954Z,8.20
2018-08-08T05:11:36.124Z,8.83
2018-08-08T05:16:38.325Z,9.00
2018-08-08T05:21:40.517Z,8.47
2018-08-08T05:26:42.761Z,8.83
2018-08-08T05:31:44.953Z,8.80
2018-08-08T05:36:47.120Z,8.67
2018-08-08T05:41:49.306Z,8.20
2018-08-08T05:46:51.485Z,7.30
2018-08-08T05:51:53.656Z,7.30
2018-08-08T05:56:55.821Z,6.80
2018-08-08T06:01:58.011Z,5.83
2018-08-08T06:07:00.177Z,5.80
2018-08-08T06:12:02.395Z,6.13
2018-08-08T06:17:04.617Z,5.20
2018-08-08T06:22:06.931Z,5.10
2018-08-08T06:27:09.162Z,5.30
2018-08-08T06:32:11.358Z,5.50
2018-08-08T06:37:13.506Z,5.37
2018-08-08T06:42:15.696Z,5.60
2018-08-08T06:47:18.235Z,4.93
2018-08-08T06:52:20.429Z,4.93
2018-08-08T06:57:22.577Z,4.73
2018-08-08T07:02:24.781Z,4.97
2018-08-08T07:07:26.966Z,4.57
2018-08-08T07:12:29.109Z,4.87
2018-08-08T07:17:33.362Z,5.20
2018-08-08T07:22:37.419Z,5.43
2018-08-08T07:27:39.626Z,5.20
2018-08-08T07:32:41.814Z,5.77
2018-08-08T07:37:44.828Z,5.40
2018-08-08T07:42:47.021Z,5.00
2018-08-08T07:47:49.591Z,5.13
2018-08-08T07:52:51.797Z,5.60
2018-08-08T07:57:53.977Z,5.17
2018-08-08T08:02:57.027Z,5.60
2018-08-08T08:07:59.197Z,5.23
2018-08-08T08:13:01.403Z,4.90
2018-08-08T08:18:03.673Z,4.90
2018-08-08T08:23:05.899Z,3.47
2018-08-08T08:28:08.065Z,4.50
2018-08-08T08:33:10.209Z,4.73
2018-08-08T08:38:12.385Z,4.10
2018-08-08T08:43:14.589Z,3.70
2018-08-08T08:48:16.840Z,4.10
2018-08-08T08:53:19.014Z,3.80
2018-08-08T08:58:21.158Z,2.93
2018-08-08T09:03:23.608Z,2.90
2018-08-08T09:08:25.829Z,2.70
2018-08-08T09:13:28.002Z,3.27
2018-08-08T09:18:30.329Z,3.40
2018-08-08T09:23:32.496Z,3.10
2018-08-08T09:28:34.807Z,2.57
2018-08-08T09:33:36.910Z,3.00
2018-08-08T09:38:39.109Z,3.03
2018-08-08T09:43:41.292Z,3.00
2018-08-08T09:48:43.459Z,3.00
2018-08-08T09:53:45.667Z,3.37
2018-08-08T09:58:48.633Z,2.70
2018-08-08T10:03:56.606Z,3.20
2018-08-08T10:08:58.697Z,3.00
2018-08-08T10:14:00.822Z,3.43
2018-08-08T10:19:03.143Z,3.20
2018-08-08T10:24:05.210Z,2.80
2018-08-08T10:29:07.362Z,3.37
2018-08-08T10:34:09.497Z,3.20
2018-08-08T10:39:12.586Z,3.47
2018-08-08T10:44:14.725Z,3.77
2018-08-08T10:49:16.858Z,2.97
2018-08-08T10:54:19.024Z,3.60
2018-08-08T10:59:21.186Z,3.27
2018-08-08T11:04:23.336Z,3.40
2018-08-08T11:09:25.486Z,3.60
2018-08-08T11:14:27.637Z,3.17
2018-08-08T11:19:29.821Z,4.23
2018-08-08T11:24:31.999Z,3.23
2018-08-08T11:29:34.133Z,3.37
2018-08-08T11:34:36.269Z,4.60
2018-08-08T11:39:38.444Z,4.07
2018-08-08T11:44:40.613Z,3.30
2018-08-08T11:49:42.774Z,4.10
2018-08-08T11:54:44.933Z,4.00
2018-08-08T11:59:47.077Z,4.30
2018-08-08T12:04:49.218Z,4.57
2018-08-08T12:09:51.389Z,4.90
2018-08-08T12:14:53.573Z,4.30
2018-08-08T12:19:55.788Z,5.00
2018-08-08T12:24:57.979Z,5.13
2018-08-08T12:30:00.129Z,4.80
2018-08-08T12:35:02.323Z,4.80
2018-08-08T12:40:05.038Z,5.23
2018-08-08T12:45:08.330Z,5.30
2018-08-08T12:50:10.533Z,4.80
2018-08-08T12:55:12.697Z,5.53
2018-08-08T13:00:14.940Z,4.77
2018-08-08T13:05:17.130Z,5.27
2018-08-08T13:10:19.296Z,5.00
2018-08-08T13:15:21.442Z,5.63
2018-08-08T13:20:23.601Z,4.73
2018-08-08T13:25:25.756Z,5.30
2018-08-08T13:30:27.921Z,6.20
2018-08-08T13:35:30.062Z,5.40
2018-08-08T13:40:32.211Z,5.10
2018-08-08T13:45:34.406Z,4.70
2018-08-08T13:50:36.551Z,5.33
2018-08-08T13:55:38.705Z,5.30
2018-08-08T14:00:40.921Z,6.07
2018-08-08T14:05:43.089Z,5.10
2018-08-08T14:10:45.272Z,4.87
2018-08-08T14:15:47.485Z,5.70
2018-08-08T14:20:49.597Z,5.10
2018-08-08T14:25:51.833Z,5.10
2018-08-08T14:30:54.018Z,5.30
2018-08-08T14:35:56.201Z,5.63
2018-08-08T14:40:58.403Z,5.33
2018-08-08T14:46:00.585Z,5.43
2018-08-08T14:51:02.915Z,5.67
2018-08-08T14:56:05.109Z,5.73
2018-08-08T15:01:07.283Z,5.60
2018-08-08T15:06:09.484Z,5.40
2018-08-08T15:11:11.621Z,5.60
2018-08-08T15:16:13.777Z,5.90
2018-08-08T15:21:15.948Z,6.20
2018-08-08T15:26:18.138Z,6.30
2018-08-08T15:31:20.348Z,6.10
2018-08-08T15:36:22.543Z,6.20
2018-08-08T15:41:24.786Z,6.40
2018-08-08T15:46:26.973Z,7.03
2018-08-08T15:51:29.151Z,6.20
2018-08-08T15:56:31.335Z,6.63
2018-08-08T16:01:33.497Z,6.13
2018-08-08T16:06:35.678Z,6.00
2018-08-08T16:11:37.930Z,6.30
2018-08-08T16:16:40.140Z,6.40
2018-08-08T16:21:42.351Z,6.90
2018-08-08T16:26:44.561Z,6.90
2018-08-08T16:31:46.785Z,6.30
2018-08-08T16:36:48.977Z,6.70
2018-08-08T16:41:51.182Z,6.17
2018-08-08T16:46:53.357Z,6.30
2018-08-08T16:51:55.559Z,6.80
2018-08-08T16:56:57.768Z,9.00
2018-08-08T17:01:59.966Z,6.50
2018-08-08T17:07:02.149Z,5.80
2018-08-08T17:12:11.190Z,5.80
2018-08-08T17:17:13.329Z,5.57
2018-08-08T17:22:15.459Z,6.03
2018-08-08T17:27:17.612Z,5.67
2018-08-08T17:32:19.782Z,5.80
2018-08-08T17:37:21.969Z,5.57
2018-08-08T17:42:24.389Z,6.17
2018-08-08T17:47:26.526Z,6.63
2018-08-08T17:52:28.689Z,5.87
2018-08-08T17:57:30.833Z,5.77
2018-08-08T18:02:32.949Z,6.80
2018-08-08T18:07:35.117Z,7.27
2018-08-08T18:12:37.257Z,6.00
2018-08-08T18:17:39.420Z,6.10
2018-08-08T18:22:41.850Z,6.60
2018-08-08T18:27:44.103Z,6.33
2018-08-08T18:32:46.218Z,6.77
2018-08-08T18:37:48.450Z,6.20
2018-08-08T18:42:50.558Z,8.20
2018-08-08T18:47:52.708Z,6.00
2018-08-08T18:52:54.857Z,6.40
2018-08-08T18:57:57.159Z,9.20
2018-08-08T19:02:59.342Z,7.40
2018-08-08T19:08:01.493Z,6.10
2018-08-08T19:13:03.670Z,6.20
2018-08-08T19:18:05.828Z,6.30
2018-08-08T19:23:07.973Z,6.20
2018-08-08T19:28:10.161Z,6.37
2018-08-08T19:33:12.326Z,6.33
2018-08-08T19:38:14.466Z,6.33
2018-08-08T19:43:16.640Z,6.40
2018-08-08T19:48:19.035Z,6.50
2018-08-08T19:53:22.035Z,6.67
2018-08-08T19:58:24.165Z,6.33
2018-08-08T20:03:26.383Z,6.50
2018-08-08T20:08:28.626Z,8.57
2018-08-08T20:13:30.773Z,7.47
2018-08-08T20:18:32.957Z,8.07
2018-08-08T20:23:35.129Z,7.90
2018-08-08T20:28:37.292Z,7.33
2018-08-08T20:33:39.452Z,6.90
2018-08-08T20:38:41.625Z,7.70
2018-08-08T20:43:43.797Z,8.03
2018-08-08T20:48:45.975Z,7.37
2018-08-08T20:53:48.170Z,7.10
2018-08-08T20:58:50.317Z,7.90
2018-08-08T21:03:52.502Z,7.40
2018-08-08T21:08:54.650Z,7.37
2018-08-08T21:13:56.775Z,7.27
2018-08-08T21:18:58.962Z,7.87
2018-08-08T21:24:01.238Z,7.90
2018-08-08T21:29:03.361Z,7.60
2018-08-08T21:34:05.654Z,7.53
2018-08-08T21:39:09.037Z,7.07
2018-08-08T21:44:11.214Z,7.53
2018-08-08T21:49:13.381Z,7.20
2018-08-08T21:54:27.302Z,8.10
2018-08-08T22:00:40.734Z,7.57
2018-08-08T22:05:54.449Z,7.60
2018-08-08T22:11:16.026Z,7.63
2018-08-08T22:16:30.645Z,7.27
2018-08-08T22:21:32.773Z,7.80
2018-08-08T22:26:34.934Z,7.93
2018-08-08T22:31:37.093Z,8.03
2018-08-08T22:36:39.661Z,7.43
2018-08-08T22:41:42.142Z,8.20
2018-08-08T22:46:44.826Z,7.50
2018-08-08T22:51:46.957Z,9.10
2018-08-08T22:56:49.104Z,7.77
2018-08-08T23:01:51.248Z,7.97
2018-08-08T23:06:53.386Z,8.13
2018-08-08T23:11:55.629Z,7.47
2018-08-08T23:16:57.809Z,8.20
2018-08-08T23:22:00.003Z,7.63
2018-08-08T23:27:02.181Z,8.40
2018-08-08T23:32:04.359Z,8.10
2018-08-08T23:37:06.523Z,8.00
2018-08-08T23:42:08.700Z,8.60
2018-08-08T23:47:10.922Z,8.37
2018-08-08T23:52:13.085Z,9.20
2018-08-08T23:57:15.241Z,8.13
